首页
METAR-TAF:

METAR-TAF

机场 :

倫敦城市機場

伦敦, 英格兰

纬度: 51-30N, 经度: 000-03E, 海拔: 5米

当前天气观测

该预报发布于32分钟前的14:20 UTC
风速21节,风向西
温度 13°C
湿度 54%
气压 1016 hPa
能见度10公里或以上
少量云层高于4100英尺

METAR: EGLC 231420Z AUTO 28021KT 9999 FEW041 13/04 Q1016

时间: 14:52 (14:52 UTC)

预报

该预报发布于44分钟前的14:08 UTC
预报有效从23日的 15点(UTC)到 23日的 22点(UTC)
风速18节,风向西,有时为28节阵风
能见度10公里或以上
散云层高于2500英尺
成为
从 23日的 15点(UTC)到 23日的 18点(UTC)
风速10节,风向西
成为
从 23日的 20点(UTC)到 23日的 22点(UTC)
风速4节,风向多变

TAF: EGLC 231408Z 2315/2322 28018G28KT 9999 SCT025 BECMG 2315/2318 28010KT BECMG 2320/2322 VRB04KT

超过4000个机场的气象观测和天气预报(METAR&TAF报告)。

可查询的气象台以黄色和红色小点在地图上表示。

将鼠标移到小点上方,可查看气象台名称。

然后点击查看天气观测和预报。

如需切换地图:点击带黑十字的绿色按钮放大地图;点击带横线的绿色按钮缩小地图;或者点击绿色箭头查看邻近地区的地图。


METAR-TAF: